createdAt,value
2023-04-22T00:02:08.141Z,100493.39
2023-04-22T00:04:41.800Z,100491.52
2023-04-22T00:07:15.060Z,100495.14
2023-04-22T00:09:47.435Z,100495.12
2023-04-22T00:12:20.070Z,100492.11
2023-04-22T00:14:52.780Z,100493.31
2023-04-22T00:17:25.317Z,100490.02
2023-04-22T00:19:57.940Z,100489.21
2023-04-22T00:22:30.521Z,100483.46
2023-04-22T00:25:02.823Z,100483.83
2023-04-22T00:27:36.031Z,100485.91
2023-04-22T00:30:11.091Z,100484.27
2023-04-22T00:32:43.991Z,100484.25
2023-04-22T00:35:16.537Z,100477.95
2023-04-22T00:37:48.922Z,100478.14
2023-04-22T00:40:21.848Z,100477.30
2023-04-22T00:42:54.883Z,100478.38
2023-04-22T00:45:29.065Z,100477.23
2023-04-22T00:48:01.864Z,100477.31
2023-04-22T00:50:35.009Z,100478.40
2023-04-22T00:53:07.284Z,100478.10
2023-04-22T00:55:39.513Z,100477.77
2023-04-22T00:58:12.864Z,100476.35
2023-04-22T01:00:45.451Z,100475.10
2023-04-22T01:03:18.393Z,100473.44
2023-04-22T01:05:52.651Z,100472.74
2023-04-22T01:08:30.227Z,100472.59
2023-04-22T01:11:03.588Z,100473.31
2023-04-22T01:13:38.557Z,100472.71
2023-04-22T01:16:12.147Z,100476.23
2023-04-22T01:18:47.762Z,100475.29
2023-04-22T01:21:20.704Z,100476.77
2023-04-22T01:23:54.717Z,100474.52
2023-04-22T01:26:29.621Z,100479.33
2023-04-22T01:29:03.043Z,100479.92
2023-04-22T01:31:36.439Z,100482.31
2023-04-22T01:34:10.627Z,100484.65
2023-04-22T01:36:42.996Z,100484.69
2023-04-22T01:39:16.123Z,100480.09
2023-04-22T01:41:49.219Z,100484.23
2023-04-22T01:44:21.949Z,100482.02
2023-04-22T01:46:55.672Z,100482.80
2023-04-22T01:49:28.355Z,100483.20
2023-04-22T01:52:01.567Z,100482.55
2023-04-22T01:54:37.093Z,100483.15
2023-04-22T01:57:14.441Z,100482.09
2023-04-22T01:59:47.881Z,100480.98
2023-04-22T02:02:20.856Z,100478.31
2023-04-22T02:04:53.562Z,100476.86
2023-04-22T02:07:27.031Z,100472.98
2023-04-22T02:09:59.159Z,100470.29
2023-04-22T02:12:31.586Z,100471.81
2023-04-22T02:15:04.589Z,100473.03
2023-04-22T02:17:42.478Z,100469.39
2023-04-22T02:20:15.882Z,100468.23
2023-04-22T02:22:50.939Z,100466.44
2023-04-22T02:25:25.215Z,100464.13
2023-04-22T02:27:57.632Z,100463.96
2023-04-22T02:30:30.470Z,100460.65
2023-04-22T02:33:04.134Z,100462.91
2023-04-22T02:35:45.363Z,100465.64
2023-04-22T02:38:22.056Z,100465.27
2023-04-22T02:40:54.697Z,100465.17
2023-04-22T02:43:27.112Z,100461.77
2023-04-22T02:45:59.750Z,100464.92
2023-04-22T02:48:32.286Z,100461.11
2023-04-22T02:51:04.501Z,100463.16
2023-04-22T02:53:37.418Z,100462.23
2023-04-22T02:56:10.410Z,100460.34
2023-04-22T02:58:42.787Z,100458.95
2023-04-22T03:01:15.702Z,100461.64
2023-04-22T03:03:48.760Z,100457.99
2023-04-22T03:06:26.111Z,100456.27
2023-04-22T03:08:58.432Z,100459.50
2023-04-22T03:11:30.837Z,100462.83
2023-04-22T03:14:03.223Z,100464.46
2023-04-22T03:16:36.429Z,100467.03
2023-04-22T03:19:10.049Z,100462.39
2023-04-22T03:21:42.958Z,100464.74
2023-04-22T03:24:15.264Z,100469.66
2023-04-22T03:26:50.640Z,100468.11
2023-04-22T03:29:23.114Z,100472.79
2023-04-22T03:31:55.421Z,100475.94
2023-04-22T03:34:29.838Z,100475.79
2023-04-22T03:37:02.229Z,100477.77
2023-04-22T03:39:37.255Z,100476.36
2023-04-22T03:42:11.621Z,100475.02
2023-04-22T03:44:46.280Z,100478.93
2023-04-22T03:47:21.437Z,100477.02
2023-04-22T03:49:59.797Z,100477.86
2023-04-22T03:52:32.255Z,100481.23
2023-04-22T03:55:04.564Z,100488.52
2023-04-22T03:57:37.669Z,100485.28
2023-04-22T04:00:12.667Z,100492.80
2023-04-22T04:02:48.311Z,100493.69
2023-04-22T04:05:22.225Z,100491.34
2023-04-22T04:07:54.704Z,100488.38
2023-04-22T04:10:29.158Z,100491.97
2023-04-22T04:13:01.747Z,100492.67
2023-04-22T04:15:37.770Z,100494.89
2023-04-22T04:18:11.828Z,100495.64
2023-04-22T04:20:44.252Z,100497.03
2023-04-22T04:23:16.765Z,100497.86
2023-04-22T04:25:50.063Z,100494.17
2023-04-22T04:28:23.520Z,100491.25
2023-04-22T04:30:55.942Z,100492.98
2023-04-22T04:33:28.883Z,100493.80
2023-04-22T04:36:02.051Z,100493.13
2023-04-22T04:38:36.691Z,100495.92
2023-04-22T04:41:10.903Z,100496.79
2023-04-22T04:43:46.664Z,100498.80
2023-04-22T04:46:37.996Z,100499.19
2023-04-22T04:49:12.813Z,100499.13
2023-04-22T04:52:01.328Z,100495.75
2023-04-22T04:54:34.329Z,100495.09
2023-04-22T04:57:07.888Z,100496.41
2023-04-22T04:59:41.656Z,100497.48
2023-04-22T05:02:14.540Z,100494.80
2023-04-22T05:04:48.056Z,100493.05
2023-04-22T05:07:20.733Z,100491.59
2023-04-22T05:09:53.896Z,100489.84
2023-04-22T05:12:26.883Z,100490.28
2023-04-22T05:14:59.522Z,100489.03
2023-04-22T05:17:32.996Z,100492.05
2023-04-22T05:20:09.756Z,100491.69
2023-04-22T05:22:43.400Z,100492.36
2023-04-22T05:25:16.252Z,100490.90
2023-04-22T05:27:55.558Z,100487.93
2023-04-22T05:30:29.599Z,100487.61
2023-04-22T05:33:01.985Z,100489.47
2023-04-22T05:35:34.343Z,100484.38
2023-04-22T05:38:07.012Z,100491.07
2023-04-22T05:40:41.052Z,100489.98
2023-04-22T05:43:16.983Z,100488.73
2023-04-22T05:45:54.142Z,100488.28
2023-04-22T05:48:26.842Z,100487.83
2023-04-22T05:51:04.721Z,100489.36
2023-04-22T05:53:37.546Z,100486.51
2023-04-22T05:56:10.601Z,100488.77
2023-04-22T05:58:42.968Z,100491.70
2023-04-22T06:01:20.950Z,100487.84
2023-04-22T06:04:11.937Z,100486.30
2023-04-22T06:06:44.340Z,100484.39
2023-04-22T06:09:19.270Z,100485.05
2023-04-22T06:11:53.295Z,100487.09
2023-04-22T06:14:27.727Z,100484.86
2023-04-22T06:17:09.890Z,100488.29
2023-04-22T06:19:42.230Z,100485.35
2023-04-22T06:22:14.798Z,100486.14
2023-04-22T06:24:48.319Z,100484.15
2023-04-22T06:27:21.392Z,100488.05
2023-04-22T06:29:53.450Z,100487.33
2023-04-22T06:32:26.145Z,100491.66
2023-04-22T06:34:58.936Z,100491.09
2023-04-22T06:37:33.335Z,100488.50
2023-04-22T06:40:08.517Z,100487.39
2023-04-22T06:42:59.984Z,100483.87
2023-04-22T06:45:52.542Z,100489.06
2023-04-22T06:49:03.127Z,100479.52
2023-04-22T06:51:54.250Z,100483.20
2023-04-22T06:54:26.543Z,100485.39
2023-04-22T06:56:59.178Z,100485.45
2023-04-22T06:59:31.236Z,100486.80
2023-04-22T07:02:03.680Z,100487.36
2023-04-22T07:04:37.621Z,100479.73
2023-04-22T07:07:10.150Z,100476.38
2023-04-22T07:09:42.558Z,100480.88
2023-04-22T07:12:15.104Z,100481.73
2023-04-22T07:14:47.832Z,100480.36
2023-04-22T07:17:22.536Z,100480.20
2023-04-22T07:19:54.817Z,100483.14
2023-04-22T07:22:26.905Z,100482.62
2023-04-22T07:24:58.978Z,100480.36
2023-04-22T07:27:31.031Z,100480.24
2023-04-22T07:30:03.303Z,100482.30
2023-04-22T07:32:35.382Z,100478.27
2023-04-22T07:35:08.749Z,100480.95
2023-04-22T07:37:41.052Z,100477.82
2023-04-22T07:40:14.764Z,100479.13
2023-04-22T07:42:48.385Z,100478.05
2023-04-22T07:45:20.640Z,100475.52
2023-04-22T07:47:52.920Z,100474.17
2023-04-22T07:50:25.385Z,100475.73
2023-04-22T07:52:57.461Z,100476.23
2023-04-22T07:55:29.827Z,100475.31
2023-04-22T07:58:06.707Z,100471.89
2023-04-22T08:00:39.613Z,100473.89
2023-04-22T08:03:12.207Z,100476.73
2023-04-22T08:05:44.648Z,100468.75
2023-04-22T08:08:16.875Z,100469.45
2023-04-22T08:10:49.047Z,100470.79
2023-04-22T08:13:21.323Z,100472.33
2023-04-22T08:15:54.160Z,100470.75
2023-04-22T08:18:26.303Z,100469.31
2023-04-22T08:20:58.910Z,100466.27
2023-04-22T08:23:31.510Z,100470.62
2023-04-22T08:26:04.748Z,100469.59
2023-04-22T08:28:38.659Z,100466.41
2023-04-22T08:31:13.250Z,100466.17
2023-04-22T08:33:45.195Z,100465.23
2023-04-22T08:36:22.876Z,100464.37
2023-04-22T08:38:56.709Z,100464.77
2023-04-22T08:41:29.916Z,100461.89
2023-04-22T08:44:04.395Z,100462.60
2023-04-22T08:46:41.941Z,100460.01
2023-04-22T08:49:16.154Z,100457.55
2023-04-22T08:51:50.495Z,100454.77
2023-04-22T08:54:22.623Z,100458.36
2023-04-22T08:56:57.900Z,100453.29
2023-04-22T08:59:32.920Z,100454.56
2023-04-22T09:02:06.664Z,100453.89
2023-04-22T09:04:39.249Z,100453.99
2023-04-22T09:07:12.140Z,100455.23
2023-04-22T09:09:48.227Z,100453.78
2023-04-22T09:12:20.421Z,100453.09
2023-04-22T09:14:52.389Z,100452.83
2023-04-22T09:17:33.927Z,100445.92
2023-04-22T09:20:09.064Z,100448.30
2023-04-22T09:22:43.988Z,100448.15
2023-04-22T09:25:20.785Z,100445.68
2023-04-22T09:27:54.329Z,100437.39
2023-04-22T09:30:28.753Z,100433.05
2023-04-22T09:33:05.115Z,100438.86
2023-04-22T09:35:38.549Z,100436.19
2023-04-22T09:38:12.972Z,100435.02
2023-04-22T09:40:48.728Z,100430.12
2023-04-22T09:43:22.013Z,100428.08
2023-04-22T09:45:54.276Z,100426.55
2023-04-22T09:48:26.822Z,100423.70
2023-04-22T09:50:59.049Z,100419.16
2023-04-22T09:53:38.581Z,100412.30
2023-04-22T09:56:11.513Z,100410.00
2023-04-22T09:58:46.202Z,100409.59
2023-04-22T10:01:19.244Z,100414.44
2023-04-22T10:03:52.656Z,100409.88
2023-04-22T10:06:28.938Z,100409.80
2023-04-22T10:09:02.772Z,100405.77
2023-04-22T10:11:43.262Z,100408.22
2023-04-22T10:14:17.509Z,100406.31
2023-04-22T10:16:52.584Z,100401.85
2023-04-22T10:19:27.908Z,100398.85
2023-04-22T10:22:02.482Z,100399.70
2023-04-22T10:24:42.339Z,100397.89
2023-04-22T10:27:14.910Z,100403.33
2023-04-22T10:29:51.095Z,100399.57
2023-04-22T10:32:34.255Z,100394.56
2023-04-22T10:35:16.608Z,100393.85
2023-04-22T10:37:49.585Z,100396.11
2023-04-22T10:40:23.420Z,100391.56
2023-04-22T10:43:03.664Z,100391.95
2023-04-22T10:45:39.611Z,100390.95
2023-04-22T10:48:11.990Z,100389.80
2023-04-22T10:50:44.971Z,100385.33
2023-04-22T10:53:44.071Z,100382.17
2023-04-22T10:56:21.363Z,100377.17
2023-04-22T10:58:58.565Z,100377.12
2023-04-22T11:01:36.875Z,100373.15
2023-04-22T11:04:24.517Z,100372.23
2023-04-22T11:07:17.393Z,100370.27
2023-04-22T11:09:53.600Z,100372.80
2023-04-22T11:12:46.707Z,100368.48
2023-04-22T11:15:22.426Z,100368.58
2023-04-22T11:17:56.387Z,100365.41
2023-04-22T11:20:32.594Z,100363.93
2023-04-22T11:23:05.891Z,100361.61
2023-04-22T11:25:41.510Z,100358.69
2023-04-22T11:28:15.762Z,100359.53
2023-04-22T11:30:48.061Z,100354.50
2023-04-22T11:33:22.868Z,100354.88
2023-04-22T11:35:55.653Z,100351.89
2023-04-22T11:38:28.747Z,100348.35
2023-04-22T11:41:02.047Z,100345.16
2023-04-22T11:43:34.404Z,100345.34
2023-04-22T11:46:09.061Z,100342.13
2023-04-22T11:48:41.906Z,100345.83
2023-04-22T11:51:14.885Z,100343.43
2023-04-22T11:53:54.748Z,100341.73
2023-04-22T11:56:28.242Z,100342.19
2023-04-22T11:59:01.675Z,100343.09
2023-04-22T12:01:38.936Z,100338.91
2023-04-22T12:04:13.991Z,100338.73
2023-04-22T12:06:47.702Z,100334.30
2023-04-22T12:09:20.083Z,100331.41
2023-04-22T12:11:54.942Z,100332.61
2023-04-22T12:14:36.728Z,100324.89
2023-04-22T12:17:12.551Z,100329.23
2023-04-22T12:19:54.908Z,100327.13
2023-04-22T12:22:33.730Z,100333.83
2023-04-22T12:25:12.501Z,100329.64
2023-04-22T12:27:44.612Z,100334.59
2023-04-22T12:30:18.057Z,100333.11
2023-04-22T12:32:50.281Z,100330.09
2023-04-22T12:35:23.099Z,100327.96
2023-04-22T12:37:55.353Z,100325.40
2023-04-22T12:40:28.032Z,100322.50
2023-04-22T12:43:00.107Z,100318.73
2023-04-22T12:45:32.618Z,100320.59
2023-04-22T12:48:05.298Z,100316.77
2023-04-22T12:50:38.136Z,100312.44
2023-04-22T12:53:10.516Z,100309.23
2023-04-22T12:55:44.677Z,100307.52
2023-04-22T12:58:18.946Z,100307.83
2023-04-22T13:00:51.623Z,100301.05
2023-04-22T13:03:24.026Z,100295.02
2023-04-22T13:05:56.982Z,100295.80
2023-04-22T13:08:30.896Z,100294.58
2023-04-22T13:11:03.191Z,100291.14
2023-04-22T13:13:43.897Z,100290.52
2023-04-22T13:17:19.124Z,100288.23
2023-04-22T13:20:16.449Z,100288.03
2023-04-22T13:23:09.927Z,100285.16
2023-04-22T13:26:14.893Z,100281.23
2023-04-22T13:29:17.948Z,100284.08
2023-04-22T13:32:11.280Z,100281.36
2023-04-22T13:34:57.811Z,100277.05
2023-04-22T13:37:49.465Z,100281.11
2023-04-22T13:40:55.520Z,100274.77
2023-04-22T13:43:51.989Z,100272.17
2023-04-22T13:46:45.930Z,100278.88
2023-04-22T13:49:39.096Z,100270.52
2023-04-22T13:52:32.355Z,100276.83
2023-04-22T13:55:26.963Z,100269.20
2023-04-22T13:58:19.690Z,100270.17
2023-04-22T14:01:12.477Z,100269.66
2023-04-22T14:04:05.405Z,100270.83
2023-04-22T14:06:37.885Z,100268.84
2023-04-22T14:09:41.162Z,100270.39
2023-04-22T14:12:36.233Z,100266.80
2023-04-22T14:15:28.725Z,100266.96
2023-04-22T14:18:43.011Z,100264.46
2023-04-22T14:21:36.362Z,100261.41
2023-04-22T14:24:32.599Z,100261.36
2023-04-22T14:27:33.847Z,100256.58
2023-04-22T14:30:27.040Z,100260.05
2023-04-22T14:33:21.184Z,100254.91
2023-04-22T14:36:14.451Z,100257.80
2023-04-22T14:39:07.320Z,100254.52
2023-04-22T14:41:51.144Z,100255.49
2023-04-22T14:44:44.345Z,100253.39
2023-04-22T14:47:37.992Z,100248.66
2023-04-22T14:50:36.269Z,100247.86
2023-04-22T14:53:36.642Z,100246.55
2023-04-22T14:56:31.117Z,100245.77
2023-04-22T14:59:25.767Z,100241.59
2023-04-22T15:02:18.470Z,100239.79
2023-04-22T15:05:12.901Z,100238.31
2023-04-22T15:08:06.705Z,100240.02
2023-04-22T15:11:00.075Z,100242.73
2023-04-22T15:13:53.509Z,100240.50
2023-04-22T15:16:46.798Z,100238.39
2023-04-22T15:19:40.857Z,100240.38
2023-04-22T15:22:34.843Z,100237.66
2023-04-22T15:25:27.634Z,100236.91
2023-04-22T15:28:42.892Z,100237.77
2023-04-22T15:31:56.922Z,100237.90
2023-04-22T15:34:50.182Z,100234.65
2023-04-22T15:37:43.656Z,100233.30
2023-04-22T15:40:36.588Z,100231.91
2023-04-22T15:43:34.175Z,100233.13
2023-04-22T15:46:33.490Z,100229.41
2023-04-22T15:49:26.992Z,100227.50
2023-04-22T15:52:20.105Z,100223.32
2023-04-22T15:55:04.476Z,100227.64
2023-04-22T15:57:47.247Z,100223.79
2023-04-22T16:00:41.674Z,100225.36
2023-04-22T16:03:35.564Z,100226.77
2023-04-22T16:06:28.330Z,100221.04
2023-04-22T16:09:21.759Z,100222.41
2023-04-22T16:12:15.054Z,100216.67
2023-04-22T16:15:09.583Z,100217.35
2023-04-22T16:18:04.869Z,100213.88
2023-04-22T16:20:58.015Z,100214.65
2023-04-22T16:23:53.532Z,100218.40
2023-04-22T16:26:46.041Z,100216.69
2023-04-22T16:29:39.296Z,100219.64
2023-04-22T16:32:32.699Z,100221.99
2023-04-22T16:35:25.780Z,100220.09
2023-04-22T16:38:19.384Z,100215.12
2023-04-22T16:41:12.815Z,100216.98
2023-04-22T16:44:06.089Z,100216.66
2023-04-22T16:46:58.824Z,100213.67
2023-04-22T16:49:51.656Z,100219.39
2023-04-22T16:52:44.274Z,100211.55
2023-04-22T16:55:38.106Z,100212.61
2023-04-22T16:58:20.804Z,100211.20
2023-04-22T17:01:06.522Z,100208.77
2023-04-22T17:03:59.395Z,100208.39
2023-04-22T17:06:43.811Z,100214.23
2023-04-22T17:09:37.701Z,100212.98
2023-04-22T17:12:20.523Z,100215.59
2023-04-22T17:15:14.042Z,100216.90
2023-04-22T17:18:08.116Z,100217.86
2023-04-22T17:21:05.255Z,100216.06
2023-04-22T17:23:59.586Z,100220.02
2023-04-22T17:26:52.931Z,100217.20
2023-04-22T17:29:46.711Z,100217.50
2023-04-22T17:32:40.158Z,100212.88
2023-04-22T17:35:34.548Z,100215.51
2023-04-22T17:38:28.562Z,100215.82
2023-04-22T17:41:21.830Z,100216.94
2023-04-22T17:44:15.114Z,100219.81
2023-04-22T17:47:07.985Z,100224.84
2023-04-22T17:50:01.517Z,100223.93
2023-04-22T17:52:53.924Z,100227.56
2023-04-22T17:55:48.109Z,100227.88
2023-04-22T17:58:54.038Z,100235.67
2023-04-22T18:01:46.742Z,100236.42
2023-04-22T18:04:39.564Z,100233.92
2023-04-22T18:07:32.438Z,100236.13
2023-04-22T18:10:25.100Z,100235.23
2023-04-22T18:13:18.147Z,100233.55
2023-04-22T18:16:10.620Z,100239.67
2023-04-22T18:19:06.851Z,100243.31
2023-04-22T18:22:00.607Z,100244.88
2023-04-22T18:24:54.213Z,100245.71
2023-04-22T18:27:47.764Z,100248.08
2023-04-22T18:30:41.671Z,100250.09
2023-04-22T18:33:36.082Z,100256.26
2023-04-22T18:36:29.465Z,100260.77
2023-04-22T18:39:22.816Z,100261.38
2023-04-22T18:42:16.393Z,100263.05
2023-04-22T18:45:13.407Z,100264.39
2023-04-22T18:48:07.225Z,100262.58
2023-04-22T18:51:01.686Z,100267.54
2023-04-22T18:53:56.911Z,100270.86
2023-04-22T18:56:50.236Z,100269.11
2023-04-22T18:59:43.348Z,100266.41
2023-04-22T19:02:38.586Z,100265.50
2023-04-22T19:05:36.069Z,100261.73
2023-04-22T19:08:29.457Z,100259.48
2023-04-22T19:11:22.578Z,100263.27
2023-04-22T19:14:16.477Z,100266.98
2023-04-22T19:17:09.813Z,100265.91
2023-04-22T19:20:02.678Z,100269.36
2023-04-22T19:22:55.694Z,100268.41
2023-04-22T19:25:39.114Z,100270.20
2023-04-22T19:28:32.508Z,100269.17
2023-04-22T19:31:25.641Z,100265.52
2023-04-22T19:34:19.153Z,100269.91
2023-04-22T19:37:13.125Z,100267.02
2023-04-22T19:40:08.722Z,100263.83
2023-04-22T19:43:01.109Z,100263.74
2023-04-22T19:45:58.503Z,100263.04
2023-04-22T19:48:52.848Z,100256.98
2023-04-22T19:51:48.170Z,100253.91
2023-04-22T19:54:42.605Z,100250.35
2023-04-22T19:58:39.111Z,100251.26
2023-04-22T20:00:53.425Z,100250.98
2023-04-22T20:03:48.584Z,100259.36
2023-04-22T20:06:42.373Z,100257.81
2023-04-22T20:09:37.478Z,100256.89
2023-04-22T20:12:31.019Z,100258.80
2023-04-22T20:15:25.653Z,100257.23
2023-04-22T20:18:12.235Z,100253.93
2023-04-22T20:21:08.352Z,100252.61
2023-04-22T20:24:04.371Z,100251.48
2023-04-22T20:27:01.071Z,100250.16
2023-04-22T20:29:57.055Z,100249.24
2023-04-22T20:32:49.909Z,100249.55
2023-04-22T20:35:48.295Z,100252.46
2023-04-22T20:38:37.178Z,100253.73
2023-04-22T20:41:30.859Z,100255.44
2023-04-22T20:44:14.505Z,100263.73
2023-04-22T20:47:08.171Z,100261.35
2023-04-22T20:50:01.399Z,100260.81
2023-04-22T20:52:53.824Z,100260.86
2023-04-22T20:55:39.885Z,100260.70
2023-04-22T20:58:34.037Z,100259.08
2023-04-22T21:01:27.676Z,100255.16
2023-04-22T21:04:24.893Z,100253.67
2023-04-22T21:07:14.352Z,100255.66
2023-04-22T21:10:08.704Z,100253.81
2023-04-22T21:13:01.752Z,100255.97
2023-04-22T21:15:52.920Z,100252.44
2023-04-22T21:18:47.182Z,100251.07
2023-04-22T21:21:42.977Z,100247.92
2023-04-22T21:24:37.410Z,100246.86
2023-04-22T21:27:22.804Z,100245.15
2023-04-22T21:30:17.885Z,100248.12
2023-04-22T21:33:10.303Z,100251.13
2023-04-22T21:36:03.254Z,100252.73
2023-04-22T21:38:57.095Z,100252.38
2023-04-22T21:41:50.123Z,100257.02
2023-04-22T21:44:49.948Z,100256.16
2023-04-22T21:47:43.813Z,100252.75
2023-04-22T21:50:37.366Z,100255.10
2023-04-22T21:53:30.243Z,100256.67
2023-04-22T21:56:22.979Z,100258.34
2023-04-22T21:59:17.909Z,100256.08
2023-04-22T22:02:11.293Z,100259.02
2023-04-22T22:05:04.785Z,100256.78
2023-04-22T22:07:48.974Z,100261.10
2023-04-22T22:10:43.149Z,100261.50
2023-04-22T22:13:35.598Z,100258.89
2023-04-22T22:16:28.406Z,100258.91
2023-04-22T22:19:29.217Z,100256.41
2023-04-22T22:22:26.454Z,100256.15
2023-04-22T22:25:15.236Z,100256.14
2023-04-22T22:28:07.846Z,100257.17
2023-04-22T22:31:02.659Z,100258.13
2023-04-22T22:33:46.351Z,100259.60
2023-04-22T22:36:38.997Z,100258.89
2023-04-22T22:39:34.503Z,100257.66
2023-04-22T22:42:29.037Z,100256.27
2023-04-22T22:45:22.818Z,100257.63
2023-04-22T22:48:05.787Z,100261.34
2023-04-22T22:50:59.322Z,100259.54
2023-04-22T22:53:54.314Z,100260.05
2023-04-22T22:56:48.750Z,100261.87
2023-04-22T22:59:21.493Z,100259.31
2023-04-22T23:02:15.156Z,100257.33
2023-04-22T23:05:11.758Z,100260.02
2023-04-22T23:07:54.612Z,100262.16
2023-04-22T23:10:47.756Z,100262.81
2023-04-22T23:13:41.510Z,100260.60
2023-04-22T23:16:39.975Z,100259.29
2023-04-22T23:19:34.536Z,100254.82
2023-04-22T23:22:27.958Z,100253.96
2023-04-22T23:25:23.111Z,100253.29
2023-04-22T23:28:07.107Z,100255.87
2023-04-22T23:31:04.568Z,100251.66
2023-04-22T23:33:53.583Z,100251.93
2023-04-22T23:36:48.319Z,100250.85
2023-04-22T23:39:43.609Z,100245.45
2023-04-22T23:42:39.571Z,100244.55
2023-04-22T23:45:34.308Z,100243.55
2023-04-22T23:48:29.826Z,100245.42
2023-04-22T23:51:44.095Z,100240.68
2023-04-22T23:54:18.006Z,100241.80
2023-04-22T23:57:13.765Z,100242.13
